createdAt,value
2023-02-06T00:00:32.950Z,2.90
2023-02-06T00:03:20.519Z,3.05
2023-02-06T00:06:05.662Z,3.02
2023-02-06T00:08:51.103Z,3.12
2023-02-06T00:11:37.147Z,2.92
2023-02-06T00:14:23.540Z,2.81
2023-02-06T00:17:08.864Z,2.61
2023-02-06T00:19:53.590Z,2.73
2023-02-06T00:22:38.559Z,2.68
2023-02-06T00:25:24.533Z,2.85
2023-02-06T00:28:09.672Z,2.81
2023-02-06T00:30:58.195Z,2.81
2023-02-06T00:33:43.242Z,2.71
2023-02-06T00:36:28.049Z,2.71
2023-02-06T00:39:15.883Z,2.86
2023-02-06T00:42:00.957Z,2.84
2023-02-06T00:44:45.963Z,2.43
2023-02-06T00:47:30.817Z,2.67
2023-02-06T00:50:17.478Z,2.94
2023-02-06T00:53:06.335Z,2.81
2023-02-06T00:55:51.481Z,2.79
2023-02-06T00:58:37.437Z,2.51
2023-02-06T01:01:23.879Z,2.52
2023-02-06T01:04:09.014Z,2.88
2023-02-06T01:06:53.873Z,2.74
2023-02-06T01:09:41.037Z,2.73
2023-02-06T01:12:26.270Z,2.78
2023-02-06T01:15:13.526Z,2.69
2023-02-06T01:17:58.566Z,2.97
2023-02-06T01:20:44.648Z,2.66
2023-02-06T01:23:29.977Z,2.55
2023-02-06T01:26:17.129Z,2.29
2023-02-06T01:29:02.421Z,2.29
2023-02-06T01:31:47.390Z,2.51
2023-02-06T01:34:32.253Z,2.61
2023-02-06T01:37:17.185Z,2.42
2023-02-06T01:40:02.071Z,2.67
2023-02-06T01:42:46.888Z,2.75
2023-02-06T01:45:31.748Z,2.53
2023-02-06T01:48:16.678Z,2.66
2023-02-06T01:51:05.660Z,2.32
2023-02-06T01:53:54.619Z,2.39
2023-02-06T01:56:44.281Z,2.75
2023-02-06T01:59:29.496Z,2.75
2023-02-06T02:02:21.748Z,2.73
2023-02-06T02:05:10.033Z,2.55
2023-02-06T02:07:55.058Z,2.59
2023-02-06T02:10:43.941Z,2.55
2023-02-06T02:13:29.073Z,2.33
2023-02-06T02:16:15.402Z,2.29
2023-02-06T02:19:02.847Z,2.59
2023-02-06T02:21:49.127Z,2.51
2023-02-06T02:24:36.677Z,2.36
2023-02-06T02:27:21.792Z,2.67
2023-02-06T02:30:09.117Z,2.52
2023-02-06T02:32:54.226Z,2.37
2023-02-06T02:35:39.170Z,2.34
2023-02-06T02:38:24.058Z,2.41
2023-02-06T02:41:11.878Z,2.46
2023-02-06T02:43:57.088Z,2.53
2023-02-06T02:46:43.131Z,2.39
2023-02-06T02:49:28.392Z,2.34
2023-02-06T02:52:14.379Z,2.34
2023-02-06T02:54:59.561Z,2.77
2023-02-06T02:57:44.585Z,2.64
2023-02-06T03:00:29.451Z,2.42
2023-02-06T03:03:15.625Z,2.52
2023-02-06T03:06:00.849Z,2.32
2023-02-06T03:08:45.754Z,2.65
2023-02-06T03:11:30.659Z,2.48
2023-02-06T03:14:15.557Z,2.41
2023-02-06T03:17:00.530Z,2.26
2023-02-06T03:19:45.282Z,2.20
2023-02-06T03:22:30.156Z,2.46
2023-02-06T03:25:15.118Z,2.76
2023-02-06T03:28:04.382Z,2.35
2023-02-06T03:30:49.627Z,2.46
2023-02-06T03:33:35.607Z,2.29
2023-02-06T03:36:23.040Z,2.53
2023-02-06T03:39:13.848Z,2.19
2023-02-06T03:41:58.977Z,2.20
2023-02-06T03:44:43.743Z,2.20
2023-02-06T03:47:28.579Z,2.68
2023-02-06T03:50:13.543Z,2.56
2023-02-06T03:52:58.573Z,2.61
2023-02-06T03:55:43.382Z,2.41
2023-02-06T03:58:28.530Z,1.99
2023-02-06T04:01:13.267Z,2.18
2023-02-06T04:03:59.398Z,2.22
2023-02-06T04:06:48.865Z,2.31
2023-02-06T04:09:34.107Z,2.12
2023-02-06T04:12:18.857Z,2.18
2023-02-06T04:15:03.776Z,2.09
2023-02-06T04:17:59.534Z,2.31
2023-02-06T04:20:45.114Z,2.44
2023-02-06T04:23:31.238Z,2.20
2023-02-06T04:26:16.371Z,2.34
2023-02-06T04:29:01.129Z,2.26
2023-02-06T04:31:45.946Z,2.39
2023-02-06T04:34:30.788Z,2.32
2023-02-06T04:37:15.910Z,2.56
2023-02-06T04:40:01.856Z,2.40
2023-02-06T04:42:46.990Z,2.15
2023-02-06T04:45:38.908Z,2.26
2023-02-06T04:48:28.026Z,2.26
2023-02-06T04:51:13.186Z,2.18
2023-02-06T04:53:58.216Z,2.13
2023-02-06T04:56:43.173Z,2.02
2023-02-06T04:59:31.540Z,1.98
2023-02-06T05:02:16.718Z,2.03
2023-02-06T05:05:01.454Z,2.30
2023-02-06T05:07:46.261Z,2.06
2023-02-06T05:10:31.007Z,2.39
2023-02-06T05:13:17.069Z,2.49
2023-02-06T05:16:02.364Z,2.38
2023-02-06T05:18:47.121Z,1.95
2023-02-06T05:21:32.097Z,2.06
2023-02-06T05:24:16.805Z,2.19
2023-02-06T05:27:01.718Z,2.15
2023-02-06T05:29:46.601Z,2.14
2023-02-06T05:32:54.185Z,1.99
2023-02-06T05:35:37.736Z,2.23
2023-02-06T05:38:22.712Z,2.18
2023-02-06T05:41:09.893Z,2.29
2023-02-06T05:43:55.079Z,2.34
2023-02-06T05:46:41.110Z,2.01
2023-02-06T05:49:30.008Z,2.25
2023-02-06T05:52:16.419Z,2.22
2023-02-06T05:55:02.808Z,2.12
2023-02-06T05:57:48.111Z,1.98
2023-02-06T06:00:34.558Z,2.22
2023-02-06T06:03:19.709Z,2.17
2023-02-06T06:06:04.714Z,2.41
2023-02-06T06:08:49.427Z,2.47
2023-02-06T06:11:34.305Z,2.12
2023-02-06T06:14:21.513Z,1.89
2023-02-06T06:17:08.309Z,2.12
2023-02-06T06:19:54.620Z,1.93
2023-02-06T06:22:39.884Z,2.13
2023-02-06T06:25:24.788Z,2.10
2023-02-06T06:28:09.803Z,2.19
2023-02-06T06:30:55.223Z,2.21
2023-02-06T06:33:47.606Z,1.78
2023-02-06T06:36:34.813Z,2.05
2023-02-06T06:39:19.682Z,2.06
2023-02-06T06:42:04.651Z,2.18
2023-02-06T06:44:50.829Z,1.99
2023-02-06T06:47:35.912Z,1.97
2023-02-06T06:50:20.769Z,1.91
2023-02-06T06:53:05.813Z,2.17
2023-02-06T06:55:50.676Z,2.14
2023-02-06T06:58:35.514Z,2.08
2023-02-06T07:01:20.484Z,1.74
2023-02-06T07:04:07.731Z,1.87
2023-02-06T07:06:52.849Z,1.76
2023-02-06T07:09:37.800Z,2.01
2023-02-06T07:12:22.651Z,2.15
2023-02-06T07:15:07.568Z,1.70
2023-02-06T07:17:53.647Z,1.73
2023-02-06T07:20:38.741Z,2.06
2023-02-06T07:23:23.711Z,1.96
2023-02-06T07:26:08.712Z,2.21
2023-02-06T07:28:53.695Z,2.33
2023-02-06T07:31:38.629Z,2.25
2023-02-06T07:34:23.952Z,2.22
2023-02-06T07:37:08.872Z,2.23
2023-02-06T07:39:53.882Z,2.45
2023-02-06T07:42:38.785Z,2.25
2023-02-06T07:45:23.559Z,2.64
2023-02-06T07:48:08.491Z,2.47
2023-02-06T07:50:53.319Z,2.54
2023-02-06T07:53:38.271Z,2.56
2023-02-06T07:56:24.292Z,2.71
2023-02-06T07:59:09.518Z,2.88
2023-02-06T08:01:54.508Z,3.20
2023-02-06T08:04:39.487Z,2.63
2023-02-06T08:07:24.335Z,2.76
2023-02-06T08:10:10.382Z,2.91
2023-02-06T08:12:55.730Z,3.18
2023-02-06T08:15:40.538Z,2.79
2023-02-06T08:18:25.460Z,3.39
2023-02-06T08:21:10.256Z,3.67
2023-02-06T08:23:55.101Z,3.93
2023-02-06T08:26:40.116Z,3.94
2023-02-06T08:29:24.893Z,3.77
2023-02-06T08:32:09.921Z,3.55
2023-02-06T08:34:54.751Z,3.81
2023-02-06T08:37:39.791Z,3.82
2023-02-06T08:40:27.688Z,3.82
2023-02-06T08:43:15.694Z,3.91
2023-02-06T08:46:04.550Z,3.98
2023-02-06T08:48:49.718Z,4.02
2023-02-06T08:51:34.470Z,4.25
2023-02-06T08:54:19.439Z,4.20
2023-02-06T08:57:04.453Z,3.94
2023-02-06T08:59:49.341Z,4.23
2023-02-06T09:02:34.256Z,4.26
2023-02-06T09:05:19.037Z,4.36
2023-02-06T09:08:05.038Z,4.67
2023-02-06T09:10:50.283Z,4.57
2023-02-06T09:13:36.460Z,4.68
2023-02-06T09:16:25.919Z,4.31
2023-02-06T09:19:11.024Z,4.21
2023-02-06T09:21:55.865Z,4.47
2023-02-06T09:24:40.768Z,4.84
2023-02-06T09:27:30.018Z,4.79
2023-02-06T09:30:15.338Z,4.97
2023-02-06T09:33:00.262Z,4.48
2023-02-06T09:35:45.202Z,4.68
2023-02-06T09:38:30.041Z,4.70
2023-02-06T09:41:16.277Z,4.78
2023-02-06T09:44:04.424Z,4.58
2023-02-06T09:46:49.699Z,4.93
2023-02-06T09:49:34.605Z,4.40
2023-02-06T09:52:19.518Z,5.28
2023-02-06T09:55:04.391Z,5.51
2023-02-06T09:57:49.319Z,5.03
2023-02-06T10:00:36.671Z,4.67
2023-02-06T10:03:21.696Z,4.73
2023-02-06T10:06:06.690Z,5.24
2023-02-06T10:08:51.429Z,5.48
2023-02-06T10:11:36.437Z,5.22
2023-02-06T10:14:21.369Z,4.44
2023-02-06T10:17:07.646Z,5.12
2023-02-06T10:19:53.093Z,5.38
2023-02-06T10:22:39.059Z,4.85
2023-02-06T10:25:24.456Z,5.50
2023-02-06T10:28:09.628Z,5.59
2023-02-06T10:30:55.083Z,6.04
2023-02-06T10:33:39.859Z,6.27
2023-02-06T10:36:25.003Z,6.58
2023-02-06T10:39:10.173Z,6.16
2023-02-06T10:41:54.969Z,6.07
2023-02-06T10:44:39.908Z,6.65
2023-02-06T10:47:25.902Z,6.62
2023-02-06T10:50:13.455Z,7.22
2023-02-06T10:52:58.641Z,7.62
2023-02-06T10:55:44.593Z,7.21
2023-02-06T10:58:32.384Z,7.26
2023-02-06T11:01:26.114Z,7.33
2023-02-06T11:04:11.403Z,7.41
2023-02-06T11:06:56.353Z,7.47
2023-02-06T11:09:44.161Z,7.79
2023-02-06T11:12:29.213Z,8.28
2023-02-06T11:15:14.002Z,8.47
2023-02-06T11:17:59.051Z,8.49
2023-02-06T11:20:43.869Z,8.62
2023-02-06T11:23:29.035Z,8.86
2023-02-06T11:26:14.238Z,8.15
2023-02-06T11:28:59.671Z,8.80
2023-02-06T11:31:44.610Z,8.96
2023-02-06T11:34:33.288Z,9.48
2023-02-06T11:37:18.766Z,9.79
2023-02-06T11:40:07.311Z,9.88
2023-02-06T11:42:54.376Z,9.75
2023-02-06T11:45:39.936Z,9.92
2023-02-06T11:48:26.176Z,10.20
2023-02-06T11:51:11.258Z,9.21
2023-02-06T11:53:56.042Z,8.89
2023-02-06T11:56:40.845Z,9.21
2023-02-06T11:59:25.768Z,9.59
2023-02-06T12:02:10.669Z,9.81
2023-02-06T12:04:55.743Z,9.24
2023-02-06T12:07:40.806Z,9.30
2023-02-06T12:10:25.730Z,8.60
2023-02-06T12:13:10.686Z,9.41
2023-02-06T12:15:58.515Z,9.09
2023-02-06T12:18:44.825Z,8.98
2023-02-06T12:21:29.952Z,9.16
2023-02-06T12:24:14.853Z,8.16
2023-02-06T12:26:59.809Z,8.05
2023-02-06T12:29:46.433Z,8.84
2023-02-06T12:32:31.544Z,9.21
2023-02-06T12:35:16.322Z,9.28
2023-02-06T12:38:02.989Z,9.12
2023-02-06T12:40:49.382Z,8.85
2023-02-06T12:43:34.595Z,9.19
2023-02-06T12:46:20.826Z,9.51
2023-02-06T12:49:06.085Z,10.32
2023-02-06T12:51:56.036Z,10.38
2023-02-06T12:54:42.394Z,11.70
2023-02-06T12:57:28.829Z,11.15
2023-02-06T13:00:14.012Z,10.80
2023-02-06T13:02:59.035Z,10.89
2023-02-06T13:05:45.459Z,10.78
2023-02-06T13:08:34.858Z,11.46
2023-02-06T13:11:20.253Z,10.61
2023-02-06T13:14:06.324Z,10.37
2023-02-06T13:16:51.444Z,10.02
2023-02-06T13:19:36.318Z,10.25
2023-02-06T13:22:21.273Z,10.11
2023-02-06T13:25:07.953Z,9.68
2023-02-06T13:27:53.128Z,9.85
2023-02-06T13:30:37.944Z,9.70
2023-02-06T13:33:25.222Z,9.72
2023-02-06T13:36:11.383Z,9.54
2023-02-06T13:38:56.684Z,8.78
2023-02-06T13:41:41.434Z,9.17
2023-02-06T13:44:30.741Z,8.25
2023-02-06T13:47:15.964Z,8.54
2023-02-06T13:50:00.861Z,8.73
2023-02-06T13:52:47.048Z,8.91
2023-02-06T13:55:32.333Z,8.68
2023-02-06T13:58:17.205Z,7.59
2023-02-06T14:01:04.387Z,8.28
2023-02-06T14:03:49.337Z,8.27
2023-02-06T14:06:38.748Z,8.13
2023-02-06T14:09:25.213Z,8.14
2023-02-06T14:12:12.747Z,8.52
2023-02-06T14:14:57.771Z,7.59
2023-02-06T14:17:42.931Z,7.92
2023-02-06T14:20:27.610Z,7.78
2023-02-06T14:23:12.487Z,7.26
2023-02-06T14:25:57.393Z,6.97
2023-02-06T14:28:42.240Z,6.95
2023-02-06T14:31:27.123Z,7.42
2023-02-06T14:34:12.026Z,6.91
2023-02-06T14:36:58.279Z,7.19
2023-02-06T14:39:43.450Z,7.07
2023-02-06T14:42:29.801Z,6.46
2023-02-06T14:45:15.063Z,6.75
2023-02-06T14:47:59.893Z,6.68
2023-02-06T14:50:44.753Z,6.84
2023-02-06T14:53:32.008Z,6.43
2023-02-06T14:56:20.341Z,6.17
2023-02-06T14:59:07.926Z,6.23
2023-02-06T15:01:54.287Z,5.64
2023-02-06T15:04:39.443Z,6.01
2023-02-06T15:07:24.566Z,5.99
2023-02-06T15:10:09.406Z,6.43
2023-02-06T15:12:56.514Z,6.19
2023-02-06T15:15:42.405Z,5.45
2023-02-06T15:18:29.253Z,5.88
2023-02-06T15:21:15.456Z,5.48
2023-02-06T15:24:02.255Z,5.45
2023-02-06T15:26:47.514Z,4.99
2023-02-06T15:29:36.225Z,4.72
2023-02-06T15:32:21.521Z,4.82
2023-02-06T15:35:06.387Z,5.37
2023-02-06T15:37:51.246Z,4.74
2023-02-06T15:40:38.759Z,5.08
2023-02-06T15:43:23.716Z,5.08
2023-02-06T15:46:08.531Z,5.36
2023-02-06T15:48:53.489Z,5.31
2023-02-06T15:51:38.435Z,5.45
2023-02-06T15:54:23.473Z,5.53
2023-02-06T15:57:08.842Z,5.38
2023-02-06T15:59:53.581Z,5.48
2023-02-06T16:02:38.526Z,5.68
2023-02-06T16:05:23.344Z,5.67
2023-02-06T16:08:08.213Z,4.99
2023-02-06T16:10:54.180Z,5.04
2023-02-06T16:13:39.454Z,4.89
2023-02-06T16:16:24.440Z,5.05
2023-02-06T16:19:09.206Z,5.08
2023-02-06T16:21:58.080Z,4.92
2023-02-06T16:24:43.196Z,5.01
2023-02-06T16:27:29.942Z,4.70
2023-02-06T16:30:14.976Z,4.17
2023-02-06T16:35:58.957Z,5.10
2023-02-06T16:39:03.359Z,4.80
2023-02-06T16:41:52.738Z,4.69
2023-02-06T16:44:44.807Z,4.99
2023-02-06T16:47:30.830Z,4.74
2023-02-06T16:50:15.845Z,4.68
2023-02-06T16:53:00.561Z,4.73
2023-02-06T16:55:45.470Z,4.81
2023-02-06T16:58:30.316Z,4.61
2023-02-06T17:01:15.265Z,4.70
2023-02-06T17:04:02.341Z,4.82
2023-02-06T17:06:47.402Z,4.54
2023-02-06T17:09:32.389Z,4.47
2023-02-06T17:12:17.210Z,4.71
2023-02-06T17:15:02.151Z,4.45
2023-02-06T17:17:49.443Z,3.75
2023-02-06T17:20:34.489Z,4.01
2023-02-06T17:23:19.454Z,3.83
2023-02-06T17:26:04.349Z,3.59
2023-02-06T17:28:49.261Z,3.35
2023-02-06T17:31:34.130Z,3.26
2023-02-06T17:34:18.997Z,3.80
2023-02-06T17:37:07.527Z,3.52
2023-02-06T17:39:55.116Z,3.47
2023-02-06T17:42:40.129Z,3.63
2023-02-06T17:45:26.830Z,3.51
2023-02-06T17:48:15.019Z,3.52
2023-02-06T17:51:00.151Z,3.16
2023-02-06T17:53:44.999Z,3.39
2023-02-06T17:56:29.953Z,3.38
2023-02-06T17:59:14.971Z,3.15
2023-02-06T18:02:01.187Z,3.26
2023-02-06T18:04:46.341Z,3.04
2023-02-06T18:07:39.893Z,3.18
2023-02-06T18:10:24.933Z,3.08
2023-02-06T18:13:09.968Z,2.83
2023-02-06T18:15:56.640Z,2.91
2023-02-06T18:18:41.774Z,3.16
2023-02-06T18:21:29.599Z,2.73
2023-02-06T18:24:17.089Z,2.17
2023-02-06T18:27:02.269Z,2.15
2023-02-06T18:29:50.186Z,2.55
2023-02-06T18:32:35.703Z,2.57
2023-02-06T18:35:20.530Z,2.56
2023-02-06T18:38:06.756Z,2.41
2023-02-06T18:40:52.093Z,2.23
2023-02-06T18:43:37.072Z,2.08
2023-02-06T18:46:21.926Z,2.43
2023-02-06T18:49:08.064Z,2.36
2023-02-06T18:51:55.111Z,2.35
2023-02-06T18:54:40.238Z,2.27
2023-02-06T18:57:28.112Z,2.44
2023-02-06T19:00:13.211Z,2.27
2023-02-06T19:02:59.853Z,2.29
2023-02-06T19:05:45.008Z,2.09
2023-02-06T19:08:29.878Z,2.31
2023-02-06T19:11:16.037Z,2.21
2023-02-06T19:14:01.276Z,2.14
2023-02-06T19:16:47.478Z,2.15
2023-02-06T19:19:32.666Z,2.25
2023-02-06T19:22:17.562Z,2.12
2023-02-06T19:25:03.702Z,2.03
2023-02-06T19:27:51.278Z,1.95
2023-02-06T19:30:36.483Z,2.06
2023-02-06T19:33:21.886Z,1.52
2023-02-06T19:36:06.782Z,1.71
2023-02-06T19:38:51.662Z,1.86
2023-02-06T19:41:36.698Z,2.09
2023-02-06T19:44:24.435Z,1.89
2023-02-06T19:47:09.625Z,1.78
2023-02-06T19:49:54.571Z,1.81
2023-02-06T19:52:41.339Z,1.52
2023-02-06T19:55:27.756Z,1.76
2023-02-06T19:58:12.945Z,1.76
2023-02-06T20:00:57.860Z,1.57
2023-02-06T20:03:46.595Z,1.62
2023-02-06T20:06:33.436Z,1.48
2023-02-06T20:09:23.432Z,1.45
2023-02-06T20:12:08.522Z,1.49
2023-02-06T20:14:55.705Z,1.42
2023-02-06T20:17:40.854Z,1.46
2023-02-06T20:20:26.991Z,1.41
2023-02-06T20:23:12.068Z,1.43
2023-02-06T20:25:58.673Z,1.58
2023-02-06T20:28:45.083Z,1.33
2023-02-06T20:31:34.610Z,1.19
2023-02-06T20:34:19.700Z,1.32
2023-02-06T20:37:06.885Z,1.49
2023-02-06T20:39:51.981Z,1.32
2023-02-06T20:42:36.873Z,1.39
2023-02-06T20:45:21.732Z,1.57
2023-02-06T20:48:09.921Z,1.27
2023-02-06T20:50:55.225Z,1.36
2023-02-06T20:53:40.085Z,1.11
2023-02-06T20:56:28.321Z,1.10
2023-02-06T20:59:13.295Z,1.24
2023-02-06T21:01:58.125Z,1.27
2023-02-06T21:04:43.081Z,1.13
2023-02-06T21:07:29.176Z,0.92
2023-02-06T21:10:14.298Z,1.28
2023-02-06T21:13:01.667Z,1.10
2023-02-06T21:15:46.708Z,0.91
2023-02-06T21:18:32.053Z,1.23
2023-02-06T21:21:17.039Z,1.09
2023-02-06T21:24:02.042Z,1.15
2023-02-06T21:26:48.345Z,1.00
2023-02-06T21:29:33.479Z,0.90
2023-02-06T21:32:21.733Z,0.94
2023-02-06T21:35:06.874Z,0.82
2023-02-06T21:37:51.875Z,0.86
2023-02-06T21:40:39.633Z,1.18
2023-02-06T21:43:24.506Z,1.08
2023-02-06T21:46:09.447Z,1.19
2023-02-06T21:48:54.197Z,1.44
2023-02-06T21:51:40.495Z,1.42
2023-02-06T21:54:25.578Z,1.56
2023-02-06T21:57:12.266Z,1.28
2023-02-06T21:59:57.374Z,1.25
2023-02-06T22:02:42.259Z,1.15
2023-02-06T22:05:30.102Z,1.34
2023-02-06T22:08:15.244Z,1.10
2023-02-06T22:11:02.037Z,1.15
2023-02-06T22:13:47.064Z,0.92
2023-02-06T22:16:32.021Z,0.56
2023-02-06T22:19:19.288Z,0.56
2023-02-06T22:22:04.454Z,0.64
2023-02-06T22:24:49.196Z,0.66
2023-02-06T22:27:36.435Z,0.56
2023-02-06T22:30:24.622Z,0.91
2023-02-06T22:33:10.848Z,0.81
2023-02-06T22:35:57.217Z,0.72
2023-02-06T22:38:44.721Z,0.60
2023-02-06T22:41:29.875Z,0.34
2023-02-06T22:44:21.703Z,0.67
2023-02-06T22:47:06.842Z,0.62
2023-02-06T22:49:51.881Z,0.24
2023-02-06T22:52:36.809Z,0.25
2023-02-06T22:55:21.647Z,0.36
2023-02-06T22:58:06.482Z,0.38
2023-02-06T23:00:58.905Z,0.58
2023-02-06T23:03:43.850Z,0.46
2023-02-06T23:06:28.686Z,0.53
2023-02-06T23:09:18.653Z,0.49
2023-02-06T23:12:06.167Z,0.78
2023-02-06T23:14:51.189Z,0.45
2023-02-06T23:17:35.985Z,0.23
2023-02-06T23:20:20.892Z,0.47
2023-02-06T23:23:06.868Z,0.45
2023-02-06T23:25:53.729Z,0.54
2023-02-06T23:28:38.909Z,0.64
2023-02-06T23:31:23.744Z,0.82
2023-02-06T23:34:08.820Z,0.54
2023-02-06T23:36:54.775Z,0.54
2023-02-06T23:39:40.061Z,0.60
2023-02-06T23:42:24.812Z,0.68
2023-02-06T23:45:10.786Z,0.96
2023-02-06T23:47:55.988Z,0.86
2023-02-06T23:50:40.841Z,0.79
2023-02-06T23:53:25.815Z,0.83
2023-02-06T23:56:10.582Z,0.97
2023-02-06T23:58:55.550Z,1.03
